Time;durP1;ratioP1;P1;durP2;ratioP2;P2;SDS_P1;SDS_P2;PMS_P1;PMS_P2;Temp;Humidity;BMP_temperature;BMP_pressure;BME280_temperature;BME280_humidity;BME280_pressure;Samples;Min_cycle;Max_cycle;Signal;HPM_P1;HPM_P2
2021/10/09 00:00:42;;;;;;;35.88;30.30;;;26.80;99.90;;;;;;1952108;73;21032;-89
2021/10/09 00:03:13;;;;;;;68.75;61.25;;;26.90;99.90;;;;;;1951901;73;21499;-90
2021/10/09 00:05:44;;;;;;;24.10;18.23;;;26.90;99.90;;;;;;1952038;73;21048;-88
2021/10/09 00:08:16;;;;;;;38.53;28.30;;;26.90;99.90;;;;;;1952379;73;21129;-86
2021/10/09 00:10:47;;;;;;;36.60;28.50;;;27.00;99.90;;;;;;1952251;73;21158;-87
2021/10/09 00:13:18;;;;;;;31.48;23.60;;;27.00;99.90;;;;;;1952211;73;21106;-87
2021/10/09 00:15:49;;;;;;;23.18;19.95;;;27.00;99.90;;;;;;1952204;73;21052;-86
2021/10/09 00:18:20;;;;;;;25.32;19.77;;;27.10;99.90;;;;;;1952209;73;21060;-87
2021/10/09 00:20:51;;;;;;;19.95;15.48;;;27.10;99.90;;;;;;1951929;73;21052;-88
2021/10/09 00:23:23;;;;;;;18.82;14.80;;;27.20;99.90;;;;;;1944824;74;21092;-88
2021/10/09 00:25:55;;;;;;;24.82;16.30;;;27.20;99.90;;;;;;1944896;74;21036;-88
2021/10/09 00:28:26;;;;;;;23.00;16.30;;;27.20;99.90;;;;;;1944732;74;21183;-87
2021/10/09 00:30:57;;;;;;;19.62;14.58;;;27.30;99.90;;;;;;1944773;74;21566;-88
2021/10/09 00:33:28;;;;;;;22.50;15.13;;;27.30;99.90;;;;;;1945014;74;21508;-88
2021/10/09 00:35:59;;;;;;;20.62;15.23;;;27.40;99.90;;;;;;1944922;74;21173;-88
2021/10/09 00:38:30;;;;;;;20.25;16.10;;;27.40;99.90;;;;;;1957441;72;21586;-87
2021/10/09 00:41:01;;;;;;;20.50;15.35;;;27.50;99.90;;;;;;1952966;73;21550;-87
2021/10/09 00:43:32;;;;;;;18.87;14.30;;;27.50;99.90;;;;;;1958728;73;21229;-86
2021/10/09 00:46:04;;;;;;;18.62;14.33;;;27.60;99.90;;;;;;1950570;73;21481;-88
2021/10/09 00:48:36;;;;;;;21.20;14.78;;;27.60;99.90;;;;;;1949985;73;21564;-88
2021/10/09 00:51:08;;;;;;;20.72;13.50;;;27.60;99.90;;;;;;1947740;73;21076;-87
2021/10/09 00:53:40;;;;;;;16.97;12.60;;;27.70;99.90;;;;;;1944804;74;21107;-87
2021/10/09 00:56:12;;;;;;;16.60;11.35;;;27.70;99.90;;;;;;1944645;74;21126;-87
2021/10/09 00:58:45;;;;;;;19.50;11.22;;;27.70;99.90;;;;;;1944649;74;21052;-87
2021/10/09 01:01:17;;;;;;;16.70;10.90;;;27.70;99.90;;;;;;1944577;74;21567;-88
2021/10/09 01:03:49;;;;;;;14.45;11.12;;;27.80;99.90;;;;;;1944777;74;21111;-88
2021/10/09 01:06:20;;;;;;;15.93;11.85;;;27.80;99.90;;;;;;1992768;71;21110;-88
2021/10/09 01:08:51;;;;;;;15.98;11.12;;;27.90;99.90;;;;;;2014493;70;21125;-75
2021/10/09 01:11:21;;;;;;;14.87;10.43;;;27.90;99.90;;;;;;2008869;70;21231;-77
2021/10/09 01:13:52;;;;;;;11.75;9.73;;;28.00;99.90;;;;;;2001377;71;21098;-78
2021/10/09 01:16:26;;;;;;;15.70;10.75;;;28.00;99.90;;;;;;1973357;73;21515;-77
2021/10/09 01:18:58;;;;;;;12.98;9.88;;;28.00;99.90;;;;;;1967418;72;21200;-75
2021/10/09 01:21:31;;;;;;;18.42;9.63;;;28.10;99.90;;;;;;1954026;73;21375;-74
2021/10/09 01:24:03;;;;;;;13.80;9.78;;;28.10;99.90;;;;;;1959011;72;21079;-75
2021/10/09 01:26:34;;;;;;;12.90;10.35;;;28.20;99.90;;;;;;1986093;71;21112;-75
2021/10/09 01:29:07;;;;;;;14.45;8.80;;;28.20;99.90;;;;;;1994653;71;21160;-76
2021/10/09 01:31:38;;;;;;;12.78;9.28;;;28.20;99.90;;;;;;1978418;72;21139;-76
2021/10/09 01:34:09;;;;;;;14.40;8.18;;;28.30;99.90;;;;;;1998529;71;21170;-76
2021/10/09 01:36:41;;;;;;;11.97;9.20;;;28.30;99.90;;;;;;1986948;71;21214;-76
2021/10/09 01:39:15;;;;;;;15.63;8.80;;;28.40;99.90;;;;;;1995006;71;21040;-74
2021/10/09 01:41:47;;;;;;;14.15;9.28;;;28.40;99.90;;;;;;2016905;71;21113;-75
2021/10/09 01:44:19;;;;;;;12.90;9.68;;;28.50;99.90;;;;;;1987621;71;21113;-76
2021/10/09 01:46:49;;;;;;;11.80;8.83;;;28.50;99.90;;;;;;1990485;72;21126;-73
2021/10/09 01:49:20;;;;;;;14.35;8.80;;;28.60;99.70;;;;;;1984871;71;21503;-74
2021/10/09 01:51:51;;;;;;;12.65;9.35;;;28.70;99.30;;;;;;1992855;71;21065;-73
2021/10/09 01:54:21;;;;;;;13.43;9.23;;;28.70;99.20;;;;;;1990233;71;21134;-74
2021/10/09 01:56:53;;;;;;;15.13;9.00;;;28.80;99.10;;;;;;1989791;71;21136;-74
2021/10/09 01:59:23;;;;;;;12.78;9.70;;;28.80;98.60;;;;;;1982697;71;21523;-75
2021/10/09 02:01:54;;;;;;;11.97;8.73;;;28.90;99.00;;;;;;1988563;71;21142;-76
2021/10/09 02:04:27;;;;;;;14.47;9.25;;;28.90;99.00;;;;;;1993404;71;21575;-75
2021/10/09 02:06:57;;;;;;;11.43;8.90;;;29.00;99.00;;;;;;1993712;70;21120;-75
2021/10/09 02:09:29;;;;;;;12.75;8.60;;;29.10;99.10;;;;;;2004650;70;21497;-75
2021/10/09 02:12:00;;;;;;;16.10;9.30;;;29.10;98.40;;;;;;1998256;70;21039;-75
2021/10/09 02:27:13;;;;;;;14.45;10.20;;;29.60;97.60;;;;;;1993217;71;21840;-74
2021/10/09 02:29:44;;;;;;;11.63;8.90;;;29.70;97.40;;;;;;1964814;71;21049;-75
2021/10/09 02:32:15;;;;;;;13.95;8.90;;;29.80;96.30;;;;;;1999743;71;21076;-75
2021/10/09 02:34:46;;;;;;;12.93;8.55;;;29.90;96.60;;;;;;2005887;71;21072;-75
2021/10/09 02:37:17;;;;;;;10.28;7.78;;;30.00;96.50;;;;;;1975835;72;21480;-74
2021/10/09 02:39:47;;;;;;;11.85;7.50;;;30.10;95.40;;;;;;1987075;71;21134;-75
2021/10/09 02:42:18;;;;;;;12.33;7.72;;;30.10;95.00;;;;;;1991016;71;21104;-75
2021/10/09 02:44:49;;;;;;;9.63;7.80;;;30.20;94.70;;;;;;1943324;73;21066;-75
2021/10/09 02:47:20;;;;;;;11.05;7.80;;;30.40;94.80;;;;;;1907365;75;21080;-75
2021/10/09 02:49:51;;;;;;;8.48;7.58;;;30.50;94.30;;;;;;1983275;72;21657;-75
2021/10/09 02:52:22;;;;;;;11.30;8.33;;;30.60;93.50;;;;;;1997136;71;21063;-75
2021/10/09 02:54:53;;;;;;;9.65;7.83;;;30.60;93.60;;;;;;2006702;71;21112;-74
2021/10/09 02:57:24;;;;;;;10.95;7.42;;;30.70;94.80;;;;;;2012639;71;21149;-75
2021/10/09 02:59:55;;;;;;;8.90;8.00;;;30.80;93.40;;;;;;2019339;71;21516;-75
2021/10/09 03:02:28;;;;;;;10.60;7.58;;;30.90;93.70;;;;;;2007816;71;21174;-75
2021/10/09 03:04:59;;;;;;;10.70;7.53;;;31.00;92.90;;;;;;1997318;71;21149;-75
2021/10/09 03:07:30;;;;;;;11.55;8.05;;;31.10;94.30;;;;;;1995410;72;21579;-75
2021/10/09 03:10:01;;;;;;;12.07;6.97;;;31.10;93.50;;;;;;1992975;72;21512;-75
2021/10/09 03:12:32;;;;;;;10.70;7.42;;;31.20;92.60;;;;;;1962645;72;21130;-74
2021/10/09 03:15:03;;;;;;;10.40;7.95;;;31.30;94.70;;;;;;1959209;73;21135;-74
2021/10/09 03:17:34;;;;;;;10.23;7.53;;;31.40;91.80;;;;;;1954386;73;21057;-75
2021/10/09 03:20:07;;;;;;;11.73;7.78;;;31.50;92.70;;;;;;1970312;71;21080;-75
2021/10/09 03:22:40;;;;;;;9.68;7.50;;;31.60;91.70;;;;;;2010745;70;21045;-74
2021/10/09 03:25:11;;;;;;;10.85;8.08;;;31.70;91.10;;;;;;1995903;71;21060;-74
2021/10/09 03:27:41;;;;;;;10.90;8.33;;;31.70;91.50;;;;;;1967081;71;21158;-75
2021/10/09 03:30:11;;;;;;;9.60;7.85;;;;;;;;;;2000722;71;21249;-75
2021/10/09 03:32:42;;;;;;;10.45;7.87;;;32.00;95.50;;;;;;2009427;71;21176;-75
2021/10/09 03:35:13;;;;;;;10.20;7.95;;;31.90;95.70;;;;;;2010757;71;21111;-76
2021/10/09 03:37:45;;;;;;;12.37;7.95;;;31.90;91.90;;;;;;2010722;71;21025;-76
2021/10/09 03:40:19;;;;;;;10.15;7.58;;;;;;;;;;2004736;70;21153;-75
2021/10/09 03:42:53;;;;;;;12.45;7.95;;;32.20;92.50;;;;;;2018940;71;21075;-75
2021/10/09 03:45:51;;;;;;;10.40;7.58;;;32.30;92.90;;;;;;2013975;71;21496;-75
2021/10/09 03:48:22;;;;;;;10.78;8.10;;;;;;;;;;1871741;75;21658;-73
2021/10/09 03:53:25;;;;;;;13.40;8.78;;;;;;;;;;1868486;75;21108;-74
2021/10/09 03:55:55;;;;;;;10.30;8.70;;;;;;;;;;1862005;77;21138;-74
2021/10/09 03:58:26;;;;;;;11.68;8.05;;;;;;;;;;1877470;75;21086;-76
2021/10/09 04:00:56;;;;;;;11.10;8.75;;;;;;;;;;1935650;73;21137;-75
2021/10/09 04:03:27;;;;;;;10.72;7.78;;;;;;;;;;1929908;74;21120;-74
2021/10/09 04:05:58;;;;;;;11.38;8.25;;;;;;;;;;1943904;72;21618;-74
2021/10/09 04:08:28;;;;;;;7.75;6.95;;;;;;;;;;1929820;74;21086;-74
2021/10/09 04:10:58;;;;;;;11.25;8.00;;;;;;;;;;1935471;74;21085;-74
2021/10/09 04:13:28;;;;;;;9.88;7.72;;;;;;;;;;1926467;74;21112;-75
2021/10/09 04:15:58;;;;;;;10.63;7.70;;;;;;;;;;1942877;73;21085;-75
2021/10/09 04:18:29;;;;;;;10.43;7.10;;;;;;;;;;1901573;74;21069;-75
2021/10/09 04:20:59;;;;;;;10.55;7.37;;;;;;;;;;1871082;77;21141;-75
2021/10/09 04:23:29;;;;;;;8.43;7.60;;;;;;;;;;1900368;75;21072;-76
2021/10/09 04:25:59;;;;;;;10.58;7.92;;;;;;;;;;1897656;75;21084;-75
2021/10/09 04:28:35;;;;;;;10.05;6.92;;;;;;;;;;1893496;75;21138;-76
2021/10/09 04:31:07;;;;;;;14.10;8.35;;;;;;;;;;1894219;75;21097;-74
2021/10/09 04:33:38;;;;;;;9.48;7.17;;;;;;;;;;1898691;74;21496;-76
2021/10/09 04:36:11;;;;;;;10.20;7.87;;;;;;;;;;1877705;74;21152;-75
2021/10/09 04:38:41;;;;;;;8.88;7.80;;;;;;;;;;1847272;77;21164;-75
2021/10/09 04:41:13;;;;;;;10.53;7.55;;;;;;;;;;1827882;77;21120;-76
2021/10/09 04:43:44;;;;;;;9.03;7.42;;;;;;;;;;1896678;74;21162;-75
2021/10/09 04:46:16;;;;;;;9.53;7.83;;;;;;;;;;1923661;74;21077;-76
2021/10/09 04:48:47;;;;;;;9.23;7.78;;;;;;;;;;1913855;74;21080;-76
2021/10/09 04:51:19;;;;;;;11.78;7.95;;;;;;;;;;1912053;74;21073;-74
2021/10/09 04:53:50;;;;;;;8.85;7.80;;;;;;;;;;1915059;73;21685;-75
2021/10/09 04:56:21;;;;;;;11.08;7.33;;;;;;;;;;1928554;73;21078;-75
2021/10/09 04:58:52;;;;;;;10.65;7.75;;;;;;;;;;1946000;74;21046;-75
2021/10/09 05:01:25;;;;;;;8.40;7.60;;;33.50;99.90;;;;;;1940524;74;21521;-75
2021/10/09 05:03:56;;;;;;;8.88;7.33;;;33.60;99.90;;;;;;1900385;75;21597;-75
2021/10/09 05:06:27;;;;;;;8.25;7.28;;;33.70;99.90;;;;;;1942179;74;21240;-75
2021/10/09 05:08:59;;;;;;;10.60;7.45;;;33.70;99.90;;;;;;1927631;74;21121;-75
2021/10/09 05:11:32;;;;;;;10.15;8.08;;;33.80;99.90;;;;;;1877165;75;21114;-77
2021/10/09 05:14:03;;;;;;;10.40;7.65;;;33.70;99.90;;;;;;1881155;76;21074;-76
2021/10/09 05:16:34;;;;;;;10.18;7.87;;;33.90;99.50;;;;;;1881206;76;21071;-75
2021/10/09 05:19:05;;;;;;;11.20;7.80;;;33.90;97.80;;;;;;1870369;76;21303;-75
2021/10/09 05:21:37;;;;;;;11.43;7.95;;;33.70;96.60;;;;;;1870010;76;21562;-76
2021/10/09 05:24:08;;;;;;;11.97;7.97;;;33.80;96.50;;;;;;1867873;76;21110;-77
2021/10/09 05:26:39;;;;;;;10.25;7.50;;;33.60;96.50;;;;;;1858098;77;21146;-76
2021/10/09 05:29:16;;;;;;;10.03;7.95;;;33.70;97.30;;;;;;1827863;77;21177;-75
2021/10/09 05:31:43;;;;;;;11.05;8.55;;;33.60;96.80;;;;;;1814348;79;21149;-76
2021/10/09 05:34:14;;;;;;;9.13;8.00;;;33.40;96.70;;;;;;1819974;78;21080;-75
2021/10/09 05:36:45;;;;;;;8.40;7.50;;;33.00;94.80;;;;;;1828722;78;21155;-75
2021/10/09 05:39:15;;;;;;;9.60;8.05;;;33.00;95.20;;;;;;1879358;76;21110;-75
2021/10/09 05:41:49;;;;;;;8.53;7.60;;;33.00;94.60;;;;;;1887616;71;21619;-75
2021/10/09 05:44:24;;;;;;;9.15;7.90;;;33.10;94.40;;;;;;2018315;70;21632;-75
2021/10/09 05:46:55;;;;;;;9.30;7.78;;;33.00;93.80;;;;;;1992379;71;21530;-75
2021/10/09 05:49:26;;;;;;;11.10;7.97;;;33.30;93.70;;;;;;1984637;72;21044;-76
2021/10/09 05:54:39;;;;;;;10.45;7.70;;;33.50;93.30;;;;;;1934132;74;21535;-76
2021/10/09 06:45:41;;;;;;;11.95;7.80;;;34.20;90.00;;;;;;1933566;74;21143;-75
2021/10/09 07:00:34;;;;;;;11.97;7.97;;;34.10;89.10;;;;;;1995328;71;21114;-74
2021/10/09 07:03:06;;;;;;;10.68;8.20;;;33.90;88.50;;;;;;1988921;71;21241;-74
2021/10/09 07:05:41;;;;;;;10.78;7.60;;;34.00;90.10;;;;;;1978680;71;21472;-74
2021/10/09 07:08:09;;;;;;;10.32;7.15;;;33.80;88.10;;;;;;2007445;71;21078;-74
2021/10/09 07:10:46;;;;;;;9.23;6.87;;;33.80;87.70;;;;;;1992825;71;21160;-74
2021/10/09 07:13:16;;;;;;;10.45;7.37;;;33.80;86.50;;;;;;1988159;71;21144;-74
2021/10/09 07:15:47;;;;;;;10.45;7.85;;;33.80;85.20;;;;;;1985518;71;21481;-75
2021/10/09 07:18:18;;;;;;;9.25;7.83;;;33.90;83.70;;;;;;1989297;71;21092;-75
2021/10/09 07:20:49;;;;;;;9.28;7.53;;;33.80;85.10;;;;;;1952485;72;21640;-76
2021/10/09 07:23:22;;;;;;;7.80;6.65;;;33.90;86.70;;;;;;1888338;75;21630;-75
2021/10/09 07:25:52;;;;;;;9.98;7.25;;;33.80;84.70;;;;;;1935164;73;21049;-75
2021/10/09 07:28:23;;;;;;;9.93;8.00;;;33.80;84.80;;;;;;1982031;72;21480;-75
2021/10/09 07:30:53;;;;;;;9.25;7.47;;;33.70;85.20;;;;;;1984082;72;21061;-73
2021/10/09 07:33:24;;;;;;;8.63;7.20;;;33.90;86.80;;;;;;1991599;71;21156;-74
2021/10/09 07:35:56;;;;;;;8.73;6.72;;;33.70;85.80;;;;;;1992163;71;21135;-74
2021/10/09 07:38:27;;;;;;;8.65;7.70;;;33.70;87.10;;;;;;2003572;71;21125;-74
2021/10/09 07:40:58;;;;;;;10.50;8.30;;;33.60;88.10;;;;;;1998483;71;21139;-74
2021/10/09 07:43:28;;;;;;;8.48;7.30;;;33.60;86.90;;;;;;1993330;71;21025;-74
2021/10/09 07:45:59;;;;;;;11.53;8.38;;;33.70;88.40;;;;;;1997417;71;21172;-74
2021/10/09 07:48:30;;;;;;;11.75;8.20;;;33.70;86.70;;;;;;2003036;71;21140;-75
2021/10/09 07:51:01;;;;;;;9.20;8.05;;;33.90;86.30;;;;;;1990351;71;21071;-74
2021/10/09 07:53:33;;;;;;;8.88;7.95;;;33.90;86.10;;;;;;1999579;71;21230;-73
2021/10/09 07:56:04;;;;;;;10.03;7.42;;;33.80;87.40;;;;;;2008035;71;21073;-74
2021/10/09 07:58:36;;;;;;;10.88;7.75;;;33.60;86.60;;;;;;2006094;71;21480;-76
2021/10/09 08:01:06;;;;;;;7.87;7.08;;;33.70;89.90;;;;;;2006254;71;21136;-75
2021/10/09 08:03:38;;;;;;;9.75;7.40;;;33.60;85.40;;;;;;1998187;71;21079;-75
2021/10/09 08:06:09;;;;;;;10.03;7.15;;;33.50;86.60;;;;;;1982448;70;21796;-76
2021/10/09 08:08:40;;;;;;;7.67;6.67;;;33.60;87.80;;;;;;1993482;71;21072;-73
2021/10/09 08:11:11;;;;;;;10.70;7.10;;;33.80;88.90;;;;;;2002788;71;21057;-75
2021/10/09 08:13:43;;;;;;;7.90;7.08;;;33.60;87.70;;;;;;1988750;72;21496;-74
2021/10/09 08:16:14;;;;;;;12.18;7.45;;;33.70;88.00;;;;;;1985108;72;21072;-74
2021/10/09 08:18:45;;;;;;;9.45;7.50;;;33.60;89.50;;;;;;1990431;72;21200;-75
2021/10/09 08:21:21;;;;;;;9.25;7.42;;;33.50;89.10;;;;;;1975654;72;21193;-75
2021/10/09 08:24:02;;;;;;;10.50;6.92;;;33.50;89.50;;;;;;1989203;72;21588;-74
2021/10/09 08:26:42;;;;;;;9.43;6.85;;;33.50;89.40;;;;;;1946113;73;21513;-75
2021/10/09 08:36:38;;;;;;;14.30;7.90;;;33.20;90.00;;;;;;1986590;71;21137;-75
2021/10/09 08:39:09;;;;;;;10.40;7.42;;;33.40;89.50;;;;;;1954184;71;21649;-75
2021/10/09 08:41:41;;;;;;;8.18;7.03;;;33.20;87.60;;;;;;1998476;71;21550;-75
2021/10/09 08:44:12;;;;;;;10.20;7.35;;;33.30;89.00;;;;;;2009611;71;21513;-76
2021/10/09 08:46:42;;;;;;;10.80;7.83;;;33.20;90.10;;;;;;2005634;71;21118;-75
2021/10/09 08:49:14;;;;;;;10.10;7.37;;;33.30;90.10;;;;;;2009178;71;21056;-75
2021/10/09 08:51:45;;;;;;;11.48;6.35;;;33.00;89.70;;;;;;2007069;71;21065;-75
2021/10/09 08:54:17;;;;;;;9.93;6.37;;;33.20;90.10;;;;;;1993987;71;21067;-76
2021/10/09 08:56:49;;;;;;;8.18;6.75;;;33.00;89.80;;;;;;1978208;72;21619;-75
2021/10/09 08:59:29;;;;;;;7.33;6.10;;;32.90;90.30;;;;;;1979097;72;21539;-75
2021/10/09 09:02:00;;;;;;;9.13;6.83;;;33.00;90.20;;;;;;1987448;72;21504;-74
2021/10/09 09:04:41;;;;;;;9.00;6.62;;;32.80;90.10;;;;;;1990716;72;21075;-74
2021/10/09 09:35:27;;;;;;;11.78;8.58;;;32.30;90.20;;;;;;1978869;72;21543;-74
2021/10/09 09:40:32;;;;;;;8.50;7.55;;;32.40;90.80;;;;;;1975200;72;21104;-73
2021/10/09 09:43:03;;;;;;;11.08;7.50;;;32.40;90.90;;;;;;1991733;72;21614;-75
2021/10/09 09:45:36;;;;;;;8.85;7.45;;;32.50;91.20;;;;;;1977508;72;21065;-74
2021/10/09 09:48:08;;;;;;;10.00;7.75;;;32.30;91.20;;;;;;1975692;72;21532;-74
2021/10/09 09:50:40;;;;;;;11.70;8.23;;;32.30;91.30;;;;;;1992568;72;21550;-74
2021/10/09 09:53:12;;;;;;;12.68;7.78;;;32.30;91.50;;;;;;1988639;72;21130;-75
2021/10/09 09:55:43;;;;;;;12.18;8.53;;;32.40;91.90;;;;;;1993842;72;21471;-74
2021/10/09 09:58:17;;;;;;;9.28;8.30;;;32.30;92.00;;;;;;1978502;72;21568;-74
2021/10/09 10:00:48;;;;;;;10.75;8.78;;;32.10;92.40;;;;;;1979794;72;21123;-75
2021/10/09 10:03:21;;;;;;;11.12;9.00;;;32.30;92.60;;;;;;1978443;72;21104;-73
2021/10/09 10:05:53;;;;;;;14.80;9.63;;;32.10;92.60;;;;;;1977244;72;21577;-74
2021/10/09 10:08:26;;;;;;;10.10;9.10;;;32.10;92.70;;;;;;1986635;71;21123;-74
2021/10/09 10:10:59;;;;;;;11.75;9.05;;;32.20;92.90;;;;;;1998342;71;21127;-73
2021/10/09 10:13:32;;;;;;;15.25;9.08;;;32.20;93.00;;;;;;1982213;70;21095;-73
2021/10/09 10:16:05;;;;;;;10.75;9.58;;;32.00;93.10;;;;;;1976332;71;21474;-75
2021/10/09 10:18:38;;;;;;;12.07;9.18;;;32.00;93.30;;;;;;2001624;70;21120;-75
2021/10/09 10:21:09;;;;;;;11.33;9.15;;;31.90;93.30;;;;;;2045323;70;21474;-74
2021/10/09 10:23:43;;;;;;;12.43;9.30;;;32.10;93.50;;;;;;1991650;70;21040;-75
2021/10/09 10:26:16;;;;;;;10.72;9.08;;;32.00;93.40;;;;;;1995454;71;21064;-74
2021/10/09 10:28:49;;;;;;;11.60;9.45;;;32.00;93.50;;;;;;1998546;71;21573;-74
2021/10/09 10:31:20;;;;;;;12.90;9.95;;;32.00;93.60;;;;;;1992896;71;21118;-74
2021/10/09 10:33:59;;;;;;;13.85;10.25;;;31.80;93.40;;;;;;1998847;71;22222;-74
2021/10/09 10:36:26;;;;;;;13.70;10.30;;;31.90;93.30;;;;;;1999851;71;21484;-75
2021/10/09 10:38:57;;;;;;;12.07;10.88;;;31.90;93.50;;;;;;1979600;72;21029;-73
2021/10/09 10:41:30;;;;;;;13.03;10.58;;;31.80;93.60;;;;;;1999337;71;21049;-74
2021/10/09 10:44:02;;;;;;;16.95;11.20;;;31.80;93.60;;;;;;1998198;71;21053;-73
2021/10/09 10:46:48;;;;;;;14.40;10.58;;;31.90;93.70;;;;;;1988191;71;21608;-74
2021/10/09 10:54:20;;;;;;;19.27;13.13;;;31.70;93.90;;;;;;1970613;72;21535;-74
2021/10/09 10:56:52;;;;;;;18.42;13.22;;;31.60;93.80;;;;;;2002385;71;21205;-74
2021/10/09 10:59:28;;;;;;;14.83;12.70;;;31.60;93.80;;;;;;1978275;71;21174;-75
2021/10/09 11:02:02;;;;;;;15.85;12.50;;;31.50;93.70;;;;;;1987223;71;21622;-76
2021/10/09 11:04:36;;;;;;;14.47;12.00;;;31.60;93.70;;;;;;2000937;71;21537;-77
2021/10/09 11:07:08;;;;;;;13.75;12.28;;;31.70;93.70;;;;;;1944789;73;21558;-76
2021/10/09 11:09:39;;;;;;;15.48;12.60;;;31.60;93.70;;;;;;1984090;71;21079;-74
2021/10/09 11:12:12;;;;;;;15.00;12.10;;;31.60;93.80;;;;;;1982374;71;21535;-75
2021/10/09 11:14:44;;;;;;;15.70;13.68;;;31.40;93.50;;;;;;1979691;71;21063;-74
2021/10/09 11:17:15;;;;;;;18.02;13.43;;;31.60;93.80;;;;;;1987416;72;21577;-75
2021/10/09 11:19:48;;;;;;;15.25;13.03;;;31.50;93.90;;;;;;1992570;71;21583;-76
2021/10/09 11:22:21;;;;;;;15.00;12.78;;;31.50;93.90;;;;;;1993413;71;21197;-75
2021/10/09 11:24:54;;;;;;;15.43;13.72;;;31.30;93.90;;;;;;1997506;71;21147;-87
2021/10/09 11:27:29;;;;;;;15.80;14.20;;;31.30;94.00;;;;;;1975801;71;21091;-85
2021/10/09 11:30:02;;;;;;;20.62;13.68;;;31.40;94.10;;;;;;1992366;71;21077;-86
2021/10/09 11:32:35;;;;;;;15.78;14.05;;;31.20;94.00;;;;;;2000468;71;21122;-85
2021/10/09 11:35:20;;;;;;;17.73;14.35;;;31.20;94.40;;;;;;1992055;71;21183;-86
2021/10/09 11:37:46;;;;;;;17.23;14.60;;;31.30;94.10;;;;;;2002125;71;21057;-86
2021/10/09 11:40:22;;;;;;;18.15;15.15;;;31.20;94.00;;;;;;2002515;71;21107;-86
2021/10/09 11:43:01;;;;;;;17.98;14.30;;;31.20;94.10;;;;;;1993820;71;21524;-86
2021/10/09 11:45:32;;;;;;;15.32;13.35;;;31.20;94.10;;;;;;1988836;71;21118;-84
2021/10/09 11:55:38;;;;;;;20.57;14.47;;;31.20;94.00;;;;;;1993624;71;21100;-85
2021/10/09 11:58:09;;;;;;;15.72;13.68;;;31.10;94.00;;;;;;1995101;71;21108;-84
2021/10/09 12:00:42;;;;;;;20.52;15.10;;;31.10;94.00;;;;;;1988476;71;21190;-86
2021/10/09 12:03:15;;;;;;;18.52;13.98;;;31.10;94.00;;;;;;1983173;71;21519;-86
2021/10/09 12:05:48;;;;;;;19.23;15.10;;;31.10;94.00;;;;;;1992169;71;21056;-86
2021/10/09 12:08:24;;;;;;;16.52;14.40;;;31.20;94.20;;;;;;1978913;71;21092;-86
2021/10/09 12:10:53;;;;;;;17.37;14.85;;;31.00;94.20;;;;;;2003820;71;21587;-86
2021/10/09 12:13:24;;;;;;;17.77;14.05;;;31.10;94.60;;;;;;2006586;71;21104;-85
2021/10/09 12:15:58;;;;;;;20.23;15.48;;;31.00;94.30;;;;;;1997202;71;21574;-86
2021/10/09 12:18:29;;;;;;;17.85;15.28;;;31.00;94.50;;;;;;1996156;71;21060;-85
2021/10/09 12:21:02;;;;;;;20.43;15.78;;;31.00;94.70;;;;;;1986668;71;21079;-87
2021/10/09 12:23:36;;;;;;;19.55;16.73;;;31.00;94.90;;;;;;1982900;71;21181;-85
2021/10/09 12:26:09;;;;;;;20.55;17.15;;;30.90;95.10;;;;;;1988069;71;21107;-86
2021/10/09 12:28:42;;;;;;;20.68;18.48;;;30.90;95.20;;;;;;1988561;71;21180;-86
2021/10/09 12:31:15;;;;;;;22.90;18.30;;;30.90;95.40;;;;;;1942089;73;21072;-85
2021/10/09 12:33:46;;;;;;;22.65;17.95;;;30.90;95.50;;;;;;1924891;74;21037;-83
2021/10/09 12:36:56;;;;;;;23.02;17.65;;;30.70;95.60;;;;;;1912765;74;21103;-87
2021/10/09 12:38:56;;;;;;;27.25;18.90;;;30.90;95.90;;;;;;1947189;73;21124;-86
2021/10/09 12:41:27;;;;;;;23.98;19.27;;;30.80;96.10;;;;;;1943461;73;21484;-87
2021/10/09 12:43:58;;;;;;;26.68;18.80;;;30.70;96.20;;;;;;1947184;73;21081;-87
2021/10/09 12:46:28;;;;;;;24.10;19.20;;;30.70;96.30;;;;;;1967583;73;21029;-86
2021/10/09 12:49:01;;;;;;;21.57;18.02;;;30.60;96.40;;;;;;1961808;72;21133;-87
2021/10/09 12:51:31;;;;;;;21.52;19.07;;;30.60;96.40;;;;;;1951934;73;21123;-86
2021/10/09 12:54:06;;;;;;;21.37;18.60;;;30.70;96.60;;;;;;1964173;73;21660;-86
2021/10/09 12:56:36;;;;;;;23.60;17.80;;;30.70;96.60;;;;;;1947621;73;21076;-84
2021/10/09 12:59:07;;;;;;;28.12;19.37;;;30.60;96.60;;;;;;1954130;73;21170;-86
2021/10/09 13:01:38;;;;;;;26.55;18.73;;;30.60;96.70;;;;;;1949830;72;21578;-88
2021/10/09 13:04:10;;;;;;;24.75;18.87;;;30.50;96.80;;;;;;1928338;74;21595;-86
2021/10/09 13:06:41;;;;;;;27.07;19.00;;;30.50;96.80;;;;;;1992804;71;21505;-86
2021/10/09 13:09:16;;;;;;;22.37;18.92;;;30.50;96.80;;;;;;1975585;72;21146;-86
2021/10/09 13:12:00;;;;;;;29.77;18.45;;;30.60;96.90;;;;;;1975506;72;21044;-85
2021/10/09 13:14:21;;;;;;;24.75;18.70;;;30.60;96.90;;;;;;1944127;72;21500;-86
2021/10/09 13:16:51;;;;;;;24.27;17.67;;;30.50;96.40;;;;;;1950438;72;21748;-85
2021/10/09 13:19:23;;;;;;;24.98;19.07;;;30.50;96.30;;;;;;1916960;73;21209;-84
2021/10/09 13:21:54;;;;;;;26.10;18.02;;;30.60;96.50;;;;;;1922031;72;21787;-86
2021/10/09 13:24:25;;;;;;;25.70;18.45;;;30.70;96.50;;;;;;2005999;71;21125;-86
2021/10/09 13:26:55;;;;;;;22.60;18.40;;;30.50;96.50;;;;;;1960275;72;21094;-86
2021/10/09 13:29:26;;;;;;;23.05;18.10;;;30.60;96.60;;;;;;1976040;72;21153;-86
2021/10/09 13:31:57;;;;;;;24.43;18.82;;;30.50;96.80;;;;;;1984539;72;21040;-86
2021/10/09 13:34:31;;;;;;;24.60;19.50;;;30.50;96.90;;;;;;1983295;72;21040;-86
2021/10/09 13:37:01;;;;;;;23.62;18.65;;;30.40;96.90;;;;;;1996790;72;21125;-86
2021/10/09 13:39:33;;;;;;;24.43;19.55;;;30.50;97.20;;;;;;1960631;72;21547;-86
2021/10/09 13:42:04;;;;;;;26.33;20.02;;;30.40;97.20;;;;;;1996035;71;21553;-86
2021/10/09 13:44:35;;;;;;;25.65;19.20;;;30.50;97.30;;;;;;1984069;72;21060;-86
2021/10/09 13:47:06;;;;;;;22.45;18.67;;;30.30;97.20;;;;;;1991922;72;21067;-87
2021/10/09 13:49:42;;;;;;;23.50;18.67;;;30.30;97.30;;;;;;1997081;72;21059;-86
2021/10/09 13:52:13;;;;;;;23.95;19.23;;;30.40;97.50;;;;;;1993194;71;21060;-86
2021/10/09 13:54:46;;;;;;;26.45;18.25;;;30.40;97.60;;;;;;1983320;72;21233;-87
2021/10/09 13:57:19;;;;;;;24.80;19.32;;;30.40;97.70;;;;;;1976160;72;21053;-86
2021/10/09 13:59:52;;;;;;;22.55;18.87;;;30.30;97.80;;;;;;2004363;71;21077;-86
2021/10/09 14:02:24;;;;;;;22.00;19.50;;;30.40;97.80;;;;;;1995074;71;21680;-86
2021/10/09 14:04:57;;;;;;;23.32;18.98;;;30.40;97.80;;;;;;2003259;71;21519;-88
2021/10/09 14:07:27;;;;;;;28.90;19.23;;;30.30;97.70;;;;;;2007559;71;21064;-88
2021/10/09 14:09:57;;;;;;;27.00;19.70;;;30.50;97.90;;;;;;2008252;71;21057;-88
2021/10/09 14:12:28;;;;;;;24.10;19.48;;;30.40;98.00;;;;;;2003143;71;21060;-88
2021/10/09 14:15:01;;;;;;;22.22;19.02;;;30.30;97.80;;;;;;2006371;71;21107;-88
2021/10/09 14:17:32;;;;;;;26.90;19.87;;;30.40;97.90;;;;;;2007992;71;21547;-87
2021/10/09 14:20:06;;;;;;;23.57;19.77;;;30.30;97.90;;;;;;2005225;71;21582;-87
2021/10/09 14:22:38;;;;;;;23.75;19.90;;;30.30;98.00;;;;;;2003730;71;21123;-88
2021/10/09 14:25:11;;;;;;;24.95;19.20;;;30.40;98.50;;;;;;1994331;71;21560;-87
2021/10/09 14:27:44;;;;;;;20.60;18.23;;;30.30;97.90;;;;;;2007330;71;21154;-88
2021/10/09 14:30:18;;;;;;;20.70;18.37;;;30.30;98.00;;;;;;1992845;72;21060;-89
2021/10/09 14:32:51;;;;;;;20.90;18.52;;;30.20;98.00;;;;;;1992838;72;21056;-88
2021/10/09 14:35:26;;;;;;;23.92;18.90;;;30.30;98.00;;;;;;1992766;71;21111;-88
2021/10/09 14:37:59;;;;;;;23.40;17.45;;;30.30;98.30;;;;;;1997616;71;21162;-88
2021/10/09 14:40:34;;;;;;;22.62;17.30;;;30.20;98.00;;;;;;2001142;71;21132;-88
2021/10/09 14:43:06;;;;;;;21.48;17.27;;;30.10;98.10;;;;;;1996961;71;21131;-87
2021/10/09 14:45:42;;;;;;;21.12;17.10;;;30.10;98.20;;;;;;2000606;71;21060;-88
2021/10/09 14:48:35;;;;;;;22.98;18.15;;;30.00;98.20;;;;;;1998820;71;21160;-88
2021/10/09 15:19:22;;;;;;;22.22;16.85;;;29.80;98.40;;;;;;1861170;76;21161;-87
2021/10/09 15:22:13;;;;;;;19.10;17.07;;;29.90;98.50;;;;;;1867058;75;21146;-86
2021/10/09 15:24:43;;;;;;;18.48;16.50;;;29.80;98.50;;;;;;1886363;75;21209;-89
2021/10/09 15:27:28;;;;;;;;;;;;;;;;;;;;;
2021/10/09 15:30:01;;;;;;;19.67;16.97;;;29.80;98.80;;;;;;1881755;75;21111;-87
2021/10/09 15:32:31;;;;;;;18.48;16.52;;;29.80;98.90;;;;;;1882865;76;21099;-88
2021/10/09 15:35:08;;;;;;;21.65;18.32;;;29.70;99.00;;;;;;1883685;76;21109;-87
2021/10/09 15:37:38;;;;;;;19.82;17.73;;;29.60;99.00;;;;;;1884313;75;21192;-88
2021/10/09 15:40:13;;;;;;;21.87;19.10;;;29.70;98.90;;;;;;1887886;75;21190;-89
2021/10/09 15:42:52;;;;;;;23.00;18.42;;;29.70;98.60;;;;;;1883611;75;21143;-86
2021/10/09 15:45:26;;;;;;;23.12;18.25;;;29.70;98.70;;;;;;1873072;75;21166;-87
2021/10/09 15:47:57;;;;;;;23.65;17.87;;;29.70;98.50;;;;;;1885625;75;21569;-88